sensor_id;sensor_type;location;lat;lon;timestamp;pressure;altitude;pressure_sealevel;temperature;humidity
17615;BME280;8926;49.720;6.576;2024-01-10T00:01:11;100766.25;;;-2.21;49.32
17615;BME280;8926;49.720;6.576;2024-01-10T00:03:36;100771.38;;;-2.21;49.46
17615;BME280;8926;49.720;6.576;2024-01-10T00:06:02;100768.78;;;-2.24;49.42
17615;BME280;8926;49.720;6.576;2024-01-10T00:08:27;100773.06;;;-2.23;49.29
17615;BME280;8926;49.720;6.576;2024-01-10T00:10:52;100764.47;;;-2.28;49.70
17615;BME280;8926;49.720;6.576;2024-01-10T00:13:19;100767.81;;;-2.32;49.13
17615;BME280;8926;49.720;6.576;2024-01-10T00:15:44;100767.81;;;-2.32;49.63
17615;BME280;8926;49.720;6.576;2024-01-10T00:18:09;100769.59;;;-2.28;49.87
17615;BME280;8926;49.720;6.576;2024-01-10T00:20:35;100769.50;;;-2.37;49.35
17615;BME280;8926;49.720;6.576;2024-01-10T00:23:00;100764.31;;;-2.42;49.39
17615;BME280;8926;49.720;6.576;2024-01-10T00:25:25;100760.94;;;-2.39;49.92
17615;BME280;8926;49.720;6.576;2024-01-10T00:27:50;100771.16;;;-2.39;50.37
17615;BME280;8926;49.720;6.576;2024-01-10T00:30:15;100754.91;;;-2.43;49.58
17615;BME280;8926;49.720;6.576;2024-01-10T00:32:41;100763.47;;;-2.41;49.32
17615;BME280;8926;49.720;6.576;2024-01-10T00:35:06;100761.72;;;-2.45;49.44
17615;BME280;8926;49.720;6.576;2024-01-10T00:37:31;100766.00;;;-2.42;49.14
17615;BME280;8926;49.720;6.576;2024-01-10T00:39:57;100761.66;;;-2.49;49.69
17615;BME280;8926;49.720;6.576;2024-01-10T00:42:22;100752.28;;;-2.49;49.54
17615;BME280;8926;49.720;6.576;2024-01-10T00:44:47;100753.94;;;-2.52;49.83
17615;BME280;8926;49.720;6.576;2024-01-10T00:47:12;100752.19;;;-2.56;49.88
17615;BME280;8926;49.720;6.576;2024-01-10T00:49:37;100749.69;;;-2.52;49.90
17615;BME280;8926;49.720;6.576;2024-01-10T00:52:03;100748.75;;;-2.58;49.73
17615;BME280;8926;49.720;6.576;2024-01-10T00:54:28;100740.22;;;-2.57;50.46
17615;BME280;8926;49.720;6.576;2024-01-10T00:56:53;100741.94;;;-2.56;50.29
17615;BME280;8926;49.720;6.576;2024-01-10T00:59:18;100743.63;;;-2.58;49.72
17615;BME280;8926;49.720;6.576;2024-01-10T01:01:43;100748.72;;;-2.61;50.60
17615;BME280;8926;49.720;6.576;2024-01-10T01:04:09;100742.78;;;-2.60;50.11
17615;BME280;8926;49.720;6.576;2024-01-10T01:06:34;100740.13;;;-2.66;50.54
17615;BME280;8926;49.720;6.576;2024-01-10T01:08:59;100735.88;;;-2.66;50.48
17615;BME280;8926;49.720;6.576;2024-01-10T01:11:24;100735.03;;;-2.66;50.16
17615;BME280;8926;49.720;6.576;2024-01-10T01:13:50;100734.91;;;-2.76;50.77
17615;BME280;8926;49.720;6.576;2024-01-10T01:16:15;100748.50;;;-2.77;49.51
17615;BME280;8926;49.720;6.576;2024-01-10T01:18:40;100734.00;;;-2.78;50.74
17615;BME280;8926;49.720;6.576;2024-01-10T01:21:07;100733.22;;;-2.74;50.94
17615;BME280;8926;49.720;6.576;2024-01-10T01:23:32;100729.81;;;-2.72;50.76
17615;BME280;8926;49.720;6.576;2024-01-10T01:25:57;100728.97;;;-2.71;50.77
17615;BME280;8926;49.720;6.576;2024-01-10T01:28:23;100736.69;;;-2.68;51.78
17615;BME280;8926;49.720;6.576;2024-01-10T01:30:49;100730.75;;;-2.67;51.09
17615;BME280;8926;49.720;6.576;2024-01-10T01:33:14;100733.25;;;-2.70;51.54
17615;BME280;8926;49.720;6.576;2024-01-10T01:35:39;100731.50;;;-2.75;50.95
17615;BME280;8926;49.720;6.576;2024-01-10T01:38:04;100733.19;;;-2.77;50.68
17615;BME280;8926;49.720;6.576;2024-01-10T01:40:29;100723.00;;;-2.74;52.22
17615;BME280;8926;49.720;6.576;2024-01-10T01:42:55;100723.03;;;-2.70;51.13
17615;BME280;8926;49.720;6.576;2024-01-10T01:45:20;100719.63;;;-2.69;51.34
17615;BME280;8926;49.720;6.576;2024-01-10T01:47:45;100717.00;;;-2.74;50.82
17615;BME280;8926;49.720;6.576;2024-01-10T01:50:10;100716.13;;;-2.78;50.68
17615;BME280;8926;49.720;6.576;2024-01-10T01:52:35;100717.75;;;-2.83;51.11
17615;BME280;8926;49.720;6.576;2024-01-10T01:55:01;100721.13;;;-2.84;51.45
17615;BME280;8926;49.720;6.576;2024-01-10T01:57:26;100719.44;;;-2.83;50.55
17615;BME280;8926;49.720;6.576;2024-01-10T01:59:52;100724.59;;;-2.82;51.35
17615;BME280;8926;49.720;6.576;2024-01-10T02:02:17;100717.75;;;-2.83;51.53
17615;BME280;8926;49.720;6.576;2024-01-10T02:04:42;100716.91;;;-2.82;51.22
17615;BME280;8926;49.720;6.576;2024-01-10T02:07:08;100709.28;;;-2.79;50.92
17615;BME280;8926;49.720;6.576;2024-01-10T02:09:34;100714.31;;;-2.85;50.59
17615;BME280;8926;49.720;6.576;2024-01-10T02:11:59;100712.69;;;-2.80;51.25
17615;BME280;8926;49.720;6.576;2024-01-10T02:14:24;100710.91;;;-2.84;50.41
17615;BME280;8926;49.720;6.576;2024-01-10T02:16:49;100715.16;;;-2.86;50.34
17615;BME280;8926;49.720;6.576;2024-01-10T02:19:18;100707.47;;;-2.86;50.92
17615;BME280;8926;49.720;6.576;2024-01-10T02:21:44;100715.03;;;-2.96;51.26
17615;BME280;8926;49.720;6.576;2024-01-10T02:24:09;100709.06;;;-2.95;51.71
17615;BME280;8926;49.720;6.576;2024-01-10T02:26:34;100712.50;;;-2.95;50.81
17615;BME280;8926;49.720;6.576;2024-01-10T02:28:59;100705.69;;;-2.93;51.33
17615;BME280;8926;49.720;6.576;2024-01-10T02:31:24;100708.28;;;-2.91;51.89
17615;BME280;8926;49.720;6.576;2024-01-10T02:33:52;100712.56;;;-2.90;51.78
17615;BME280;8926;49.720;6.576;2024-01-10T02:36:17;100708.31;;;-2.88;51.58
17615;BME280;8926;49.720;6.576;2024-01-10T02:38:42;100709.19;;;-2.88;52.15
17615;BME280;8926;49.720;6.576;2024-01-10T02:41:08;100710.06;;;-2.84;52.65
17615;BME280;8926;49.720;6.576;2024-01-10T02:43:33;100707.47;;;-2.89;52.97
17615;BME280;8926;49.720;6.576;2024-01-10T02:45:58;100709.19;;;-2.88;52.65
17615;BME280;8926;49.720;6.576;2024-01-10T02:48:24;100699.81;;;-2.86;52.36
17615;BME280;8926;49.720;6.576;2024-01-10T02:50:49;100704.06;;;-2.88;51.97
17615;BME280;8926;49.720;6.576;2024-01-10T02:53:14;100698.13;;;-2.87;52.14
17615;BME280;8926;49.720;6.576;2024-01-10T02:55:39;100700.59;;;-2.93;51.85
17615;BME280;8926;49.720;6.576;2024-01-10T02:58:05;100702.31;;;-2.92;51.52
17615;BME280;8926;49.720;6.576;2024-01-10T03:00:30;100702.28;;;-2.95;52.34
17615;BME280;8926;49.720;6.576;2024-01-10T03:02:55;100692.91;;;-2.94;51.64
17615;BME280;8926;49.720;6.576;2024-01-10T03:05:20;100692.00;;;-2.98;52.32
17615;BME280;8926;49.720;6.576;2024-01-10T03:07:46;100687.75;;;-2.97;51.93
17615;BME280;8926;49.720;6.576;2024-01-10T03:10:11;100687.78;;;-2.94;51.93
17615;BME280;8926;49.720;6.576;2024-01-10T03:12:36;100690.25;;;-3.02;51.68
17615;BME280;8926;49.720;6.576;2024-01-10T03:15:03;100682.63;;;-2.99;52.22
17615;BME280;8926;49.720;6.576;2024-01-10T03:17:29;100680.09;;;-2.96;51.85
17615;BME280;8926;49.720;6.576;2024-01-10T03:19:54;100681.81;;;-2.95;51.64
17615;BME280;8926;49.720;6.576;2024-01-10T03:22:19;100678.38;;;-2.97;52.26
17615;BME280;8926;49.720;6.576;2024-01-10T03:24:44;100676.59;;;-3.04;52.40
17615;BME280;8926;49.720;6.576;2024-01-10T03:27:09;100691.06;;;-3.04;52.57
17615;BME280;8926;49.720;6.576;2024-01-10T03:29:34;100690.28;;;-2.99;52.79
17615;BME280;8926;49.720;6.576;2024-01-10T03:32:00;100695.41;;;-2.99;52.68
17615;BME280;8926;49.720;6.576;2024-01-10T03:34:25;100691.97;;;-3.01;52.46
17615;BME280;8926;49.720;6.576;2024-01-10T03:36:50;100691.09;;;-3.01;52.68
17615;BME280;8926;49.720;6.576;2024-01-10T03:39:15;100696.28;;;-2.97;52.28
17615;BME280;8926;49.720;6.576;2024-01-10T03:41:40;100690.28;;;-2.99;52.56
17615;BME280;8926;49.720;6.576;2024-01-10T03:44:06;100690.31;;;-2.96;52.69
17615;BME280;8926;49.720;6.576;2024-01-10T03:46:31;100681.91;;;-2.89;52.82
17615;BME280;8926;49.720;6.576;2024-01-10T03:48:56;100680.19;;;-2.90;52.24
17615;BME280;8926;49.720;6.576;2024-01-10T03:51:22;100682.63;;;-2.99;52.67
17615;BME280;8926;49.720;6.576;2024-01-10T03:53:47;100680.88;;;-3.01;52.55
17615;BME280;8926;49.720;6.576;2024-01-10T03:56:14;100683.50;;;-2.97;52.95
17615;BME280;8926;49.720;6.576;2024-01-10T03:58:39;100680.94;;;-2.97;52.80
17615;BME280;8926;49.720;6.576;2024-01-10T04:01:05;100673.28;;;-2.97;52.89
17615;BME280;8926;49.720;6.576;2024-01-10T04:03:31;100675.00;;;-2.96;53.31
17615;BME280;8926;49.720;6.576;2024-01-10T04:05:56;100676.63;;;-3.01;53.14
17615;BME280;8926;49.720;6.576;2024-01-10T04:08:21;100674.03;;;-3.04;52.75
17615;BME280;8926;49.720;6.576;2024-01-10T04:10:47;100670.59;;;-3.06;53.57
17615;BME280;8926;49.720;6.576;2024-01-10T04:13:12;100663.78;;;-3.05;52.75
17615;BME280;8926;49.720;6.576;2024-01-10T04:15:37;100665.44;;;-3.09;53.61
17615;BME280;8926;49.720;6.576;2024-01-10T04:18:02;100665.53;;;-3.01;52.88
17615;BME280;8926;49.720;6.576;2024-01-10T04:20:27;100665.47;;;-3.06;53.61
17615;BME280;8926;49.720;6.576;2024-01-10T04:22:53;100669.84;;;-2.99;53.60
17615;BME280;8926;49.720;6.576;2024-01-10T04:25:18;100663.00;;;-3.00;54.06
17615;BME280;8926;49.720;6.576;2024-01-10T04:27:43;100669.84;;;-2.99;53.73
17615;BME280;8926;49.720;6.576;2024-01-10T04:30:08;100671.56;;;-2.98;54.11
17615;BME280;8926;49.720;6.576;2024-01-10T04:32:34;100666.41;;;-3.01;54.27
17615;BME280;8926;49.720;6.576;2024-01-10T04:35:00;100669.84;;;-2.97;53.38
17615;BME280;8926;49.720;6.576;2024-01-10T04:37:25;100669.78;;;-3.02;53.96
17615;BME280;8926;49.720;6.576;2024-01-10T04:39:51;100669.78;;;-3.02;53.57
17615;BME280;8926;49.720;6.576;2024-01-10T04:42:16;100674.00;;;-3.05;54.03
17615;BME280;8926;49.720;6.576;2024-01-10T04:44:41;100678.22;;;-3.08;53.43
17615;BME280;8926;49.720;6.576;2024-01-10T04:47:07;100680.00;;;-3.02;53.50
17615;BME280;8926;49.720;6.576;2024-01-10T04:49:32;100674.03;;;-3.02;53.71
17615;BME280;8926;49.720;6.576;2024-01-10T04:51:57;100674.78;;;-3.11;53.99
17615;BME280;8926;49.720;6.576;2024-01-10T04:54:23;100668.81;;;-3.10;54.31
17615;BME280;8926;49.720;6.576;2024-01-10T04:56:48;100662.97;;;-3.03;54.61
17615;BME280;8926;49.720;6.576;2024-01-10T04:59:13;100666.44;;;-2.98;53.66
17615;BME280;8926;49.720;6.576;2024-01-10T05:01:38;100672.31;;;-3.03;54.76
17615;BME280;8926;49.720;6.576;2024-01-10T05:04:04;100668.16;;;-2.97;54.83
17615;BME280;8926;49.720;6.576;2024-01-10T05:06:29;100665.63;;;-2.95;54.31
17615;BME280;8926;49.720;6.576;2024-01-10T05:08:54;100668.25;;;-2.91;54.68
17615;BME280;8926;49.720;6.576;2024-01-10T05:11:23;100671.69;;;-2.89;54.98
17615;BME280;8926;49.720;6.576;2024-01-10T05:13:48;100675.13;;;-2.84;55.03
17615;BME280;8926;49.720;6.576;2024-01-10T05:16:13;100677.66;;;-2.85;54.46
17615;BME280;8926;49.720;6.576;2024-01-10T05:18:39;100673.41;;;-2.88;54.60
17615;BME280;8926;49.720;6.576;2024-01-10T05:21:04;100672.53;;;-2.88;54.27
17615;BME280;8926;49.720;6.576;2024-01-10T05:23:29;100671.59;;;-2.95;54.46
17615;BME280;8926;49.720;6.576;2024-01-10T05:25:55;100676.78;;;-2.89;54.56
17615;BME280;8926;49.720;6.576;2024-01-10T05:28:20;100669.97;;;-2.88;54.71
17615;BME280;8926;49.720;6.576;2024-01-10T05:30:45;100670.00;;;-2.87;54.96
17615;BME280;8926;49.720;6.576;2024-01-10T05:33:10;100671.69;;;-2.89;55.25
17615;BME280;8926;49.720;6.576;2024-01-10T05:35:36;100675.97;;;-2.83;54.72
17615;BME280;8926;49.720;6.576;2024-01-10T05:38:01;100670.00;;;-2.87;55.29
17615;BME280;8926;49.720;6.576;2024-01-10T05:40:30;100678.47;;;-2.91;54.83
17615;BME280;8926;49.720;6.576;2024-01-10T05:42:56;100679.28;;;-2.93;55.34
17615;BME280;8926;49.720;6.576;2024-01-10T05:45:21;100679.25;;;-2.96;55.23
17615;BME280;8926;49.720;6.576;2024-01-10T05:47:47;100678.44;;;-2.94;55.21
17615;BME280;8926;49.720;6.576;2024-01-10T05:50:13;100671.69;;;-2.87;55.20
17615;BME280;8926;49.720;6.576;2024-01-10T05:52:38;100678.44;;;-2.94;55.24
17615;BME280;8926;49.720;6.576;2024-01-10T05:55:04;100674.94;;;-2.99;55.40
17615;BME280;8926;49.720;6.576;2024-01-10T05:57:29;100684.31;;;-2.99;55.81
17615;BME280;8926;49.720;6.576;2024-01-10T05:59:55;100681.78;;;-2.98;55.50
17615;BME280;8926;49.720;6.576;2024-01-10T06:02:22;100669.88;;;-2.96;55.58
17615;BME280;8926;49.720;6.576;2024-01-10T06:04:47;100679.13;;;-3.04;56.37
17615;BME280;8926;49.720;6.576;2024-01-10T06:07:12;100681.69;;;-3.04;56.06
17615;BME280;8926;49.720;6.576;2024-01-10T06:09:38;100674.91;;;-3.02;56.42
17615;BME280;8926;49.720;6.576;2024-01-10T06:12:03;100671.47;;;-3.04;55.76
17615;BME280;8926;49.720;6.576;2024-01-10T06:14:29;100668.03;;;-3.06;55.88
17615;BME280;8926;49.720;6.576;2024-01-10T06:16:54;100678.22;;;-3.09;55.73
17615;BME280;8926;49.720;6.576;2024-01-10T06:19:19;100668.00;;;-3.09;55.98
17615;BME280;8926;49.720;6.576;2024-01-10T06:21:44;100674.78;;;-3.11;56.62
17615;BME280;8926;49.720;6.576;2024-01-10T06:24:09;100677.25;;;-3.19;55.84
17615;BME280;8926;49.720;6.576;2024-01-10T06:26:35;100671.19;;;-3.25;56.48
17615;BME280;8926;49.720;6.576;2024-01-10T06:29:00;100666.13;;;-3.22;56.56
17615;BME280;8926;49.720;6.576;2024-01-10T06:31:25;100666.13;;;-3.22;56.92
17615;BME280;8926;49.720;6.576;2024-01-10T06:33:50;100679.81;;;-3.17;56.48
17615;BME280;8926;49.720;6.576;2024-01-10T06:36:15;100679.88;;;-3.14;56.37
17615;BME280;8926;49.720;6.576;2024-01-10T06:38:41;100674.78;;;-3.11;56.88
17615;BME280;8926;49.720;6.576;2024-01-10T06:41:09;100674.72;;;-3.17;56.29
17615;BME280;8926;49.720;6.576;2024-01-10T06:43:34;100677.34;;;-3.13;56.40
17615;BME280;8926;49.720;6.576;2024-01-10T06:46:00;100682.25;;;-3.25;55.84
17615;BME280;8926;49.720;6.576;2024-01-10T06:48:25;100674.53;;;-3.29;56.46
17615;BME280;8926;49.720;6.576;2024-01-10T06:50:50;100682.16;;;-3.32;56.37
17615;BME280;8926;49.720;6.576;2024-01-10T06:53:15;100694.09;;;-3.31;55.70
17615;BME280;8926;49.720;6.576;2024-01-10T06:55:40;100702.63;;;-3.29;55.82
17615;BME280;8926;49.720;6.576;2024-01-10T06:58:05;100700.16;;;-3.23;56.24
17615;BME280;8926;49.720;6.576;2024-01-10T07:00:31;100695.88;;;-3.26;55.61
17615;BME280;8926;49.720;6.576;2024-01-10T07:02:56;100695.00;;;-3.26;56.34
17615;BME280;8926;49.720;6.576;2024-01-10T07:05:21;100693.44;;;-3.18;55.51
17615;BME280;8926;49.720;6.576;2024-01-10T07:07:46;100699.34;;;-3.21;55.64
17615;BME280;8926;49.720;6.576;2024-01-10T07:10:12;100706.91;;;-3.28;55.53
17615;BME280;8926;49.720;6.576;2024-01-10T07:12:37;100704.34;;;-3.28;55.75
17615;BME280;8926;49.720;6.576;2024-01-10T07:15:02;100702.59;;;-3.31;55.68
17615;BME280;8926;49.720;6.576;2024-01-10T07:17:30;100705.13;;;-3.32;56.15
17615;BME280;8926;49.720;6.576;2024-01-10T07:19:56;100706.84;;;-3.31;56.09
17615;BME280;8926;49.720;6.576;2024-01-10T07:22:22;100712.84;;;-3.29;55.55
17615;BME280;8926;49.720;6.576;2024-01-10T07:24:47;100709.38;;;-3.33;55.97
17615;BME280;8926;49.720;6.576;2024-01-10T07:27:12;100714.53;;;-3.30;55.82
17615;BME280;8926;49.720;6.576;2024-01-10T07:29:39;100708.63;;;-3.27;55.26
17615;BME280;8926;49.720;6.576;2024-01-10T07:32:05;100706.94;;;-3.25;55.07
17615;BME280;8926;49.720;6.576;2024-01-10T07:34:30;100708.53;;;-3.33;55.46
17615;BME280;8926;49.720;6.576;2024-01-10T07:36:55;100713.69;;;-3.30;56.10
17615;BME280;8926;49.720;6.576;2024-01-10T07:39:20;100716.28;;;-3.27;55.53
17615;BME280;8926;49.720;6.576;2024-01-10T07:41:46;100717.22;;;-3.22;55.32
17615;BME280;8926;49.720;6.576;2024-01-10T07:44:11;100714.72;;;-3.19;56.11
17615;BME280;8926;49.720;6.576;2024-01-10T07:46:37;100719.88;;;-3.16;55.35
17615;BME280;8926;49.720;6.576;2024-01-10T07:49:03;100713.78;;;-3.24;55.29
17615;BME280;8926;49.720;6.576;2024-01-10T07:51:29;100717.25;;;-3.21;55.63
17615;BME280;8926;49.720;6.576;2024-01-10T07:53:55;100718.88;;;-3.24;56.27
17615;BME280;8926;49.720;6.576;2024-01-10T07:56:20;100717.31;;;-3.16;56.07
17615;BME280;8926;49.720;6.576;2024-01-10T07:58:45;100720.81;;;-3.08;55.67
17615;BME280;8926;49.720;6.576;2024-01-10T08:01:11;100724.19;;;-3.12;55.96
17615;BME280;8926;49.720;6.576;2024-01-10T08:03:36;100721.63;;;-3.14;57.14
17615;BME280;8926;49.720;6.576;2024-01-10T08:06:01;100714.06;;;-3.03;56.94
17615;BME280;8926;49.720;6.576;2024-01-10T08:08:27;100723.53;;;-2.97;57.19
17615;BME280;8926;49.720;6.576;2024-01-10T08:10:52;100726.16;;;-2.93;56.42
17615;BME280;8926;49.720;6.576;2024-01-10T08:13:17;100736.47;;;-2.87;56.00
17615;BME280;8926;49.720;6.576;2024-01-10T08:15:43;100733.03;;;-2.89;55.50
17615;BME280;8926;49.720;6.576;2024-01-10T08:18:08;100739.78;;;-2.94;55.73
17615;BME280;8926;49.720;6.576;2024-01-10T08:20:33;100732.16;;;-2.89;56.04
17615;BME280;8926;49.720;6.576;2024-01-10T08:22:58;100727.88;;;-2.92;55.54
17615;BME280;8926;49.720;6.576;2024-01-10T08:25:24;100726.19;;;-2.91;55.91
17615;BME280;8926;49.720;6.576;2024-01-10T08:27:49;100726.09;;;-2.96;56.01
17615;BME280;8926;49.720;6.576;2024-01-10T08:30:14;100720.13;;;-2.96;55.68
17615;BME280;8926;49.720;6.576;2024-01-10T08:32:40;100721.78;;;-3.00;56.36
17615;BME280;8926;49.720;6.576;2024-01-10T08:35:05;100715.00;;;-2.98;56.42
17615;BME280;8926;49.720;6.576;2024-01-10T08:37:32;100722.81;;;-2.89;55.57
17615;BME280;8926;49.720;6.576;2024-01-10T08:39:58;100721.91;;;-2.91;55.81
17615;BME280;8926;49.720;6.576;2024-01-10T08:42:25;100719.31;;;-2.94;56.06
17615;BME280;8926;49.720;6.576;2024-01-10T08:44:50;100733.09;;;-2.83;55.16
17615;BME280;8926;49.720;6.576;2024-01-10T08:47:15;100723.69;;;-2.84;55.31
17615;BME280;8926;49.720;6.576;2024-01-10T08:49:40;100730.56;;;-2.81;56.11
17615;BME280;8926;49.720;6.576;2024-01-10T08:52:06;100739.03;;;-2.84;55.71
17615;BME280;8926;49.720;6.576;2024-01-10T08:54:31;100728.03;;;-2.80;55.69
17615;BME280;8926;49.720;6.576;2024-01-10T08:56:56;100729.78;;;-2.76;55.78
17615;BME280;8926;49.720;6.576;2024-01-10T08:59:21;100733.19;;;-2.75;55.20
17615;BME280;8926;49.720;6.576;2024-01-10T09:01:47;100740.94;;;-2.70;55.37
17615;BME280;8926;49.720;6.576;2024-01-10T09:04:12;100731.59;;;-2.68;55.23
17615;BME280;8926;49.720;6.576;2024-01-10T09:06:37;100725.63;;;-2.67;55.56
17615;BME280;8926;49.720;6.576;2024-01-10T09:09:02;100736.78;;;-2.62;55.39
17615;BME280;8926;49.720;6.576;2024-01-10T09:11:28;100741.94;;;-2.56;55.64
17615;BME280;8926;49.720;6.576;2024-01-10T09:13:53;100743.72;;;-2.52;55.61
17615;BME280;8926;49.720;6.576;2024-01-10T09:16:18;100744.66;;;-2.46;54.75
17615;BME280;8926;49.720;6.576;2024-01-10T09:18:43;100741.28;;;-2.42;55.28
17615;BME280;8926;49.720;6.576;2024-01-10T09:21:09;100743.88;;;-2.40;54.91
17615;BME280;8926;49.720;6.576;2024-01-10T09:23:34;100749.88;;;-2.33;55.21
17615;BME280;8926;49.720;6.576;2024-01-10T09:25:59;100736.41;;;-2.20;55.13
17615;BME280;8926;49.720;6.576;2024-01-10T09:28:24;100740.63;;;-2.24;54.61
17615;BME280;8926;49.720;6.576;2024-01-10T09:30:51;100744.13;;;-2.16;54.56
17615;BME280;8926;49.720;6.576;2024-01-10T09:33:16;100739.06;;;-2.13;54.89
17615;BME280;8926;49.720;6.576;2024-01-10T09:35:41;100740.81;;;-2.06;55.17
17615;BME280;8926;49.720;6.576;2024-01-10T09:38:07;100742.56;;;-2.01;54.71
17615;BME280;8926;49.720;6.576;2024-01-10T09:40:32;100745.16;;;-1.98;54.17
17615;BME280;8926;49.720;6.576;2024-01-10T09:42:57;100737.56;;;-1.92;54.35
17615;BME280;8926;49.720;6.576;2024-01-10T09:45:23;100752.06;;;-1.91;54.29
17615;BME280;8926;49.720;6.576;2024-01-10T09:47:49;100745.28;;;-1.86;54.28
17615;BME280;8926;49.720;6.576;2024-01-10T09:50:16;100737.69;;;-1.77;54.58
17615;BME280;8926;49.720;6.576;2024-01-10T09:52:45;100737.88;;;-1.53;54.12
17615;BME280;8926;49.720;6.576;2024-01-10T09:55:15;100731.41;;;-1.08;53.17
17615;BME280;8926;49.720;6.576;2024-01-10T09:57:41;100728.41;;;-0.07;51.11
17615;BME280;8926;49.720;6.576;2024-01-10T10:00:07;100710.44;;;3.35;45.88
17615;BME280;8926;49.720;6.576;2024-01-10T10:02:35;100697.47;;;6.25;40.34
17615;BME280;8926;49.720;6.576;2024-01-10T10:05:03;100684.00;;;8.27;34.84
17615;BME280;8926;49.720;6.576;2024-01-10T10:07:31;100669.59;;;9.65;33.26
17615;BME280;8926;49.720;6.576;2024-01-10T10:09:56;100667.34;;;10.65;33.08
17615;BME280;8926;49.720;6.576;2024-01-10T10:12:22;100665.56;;;11.06;29.73
17615;BME280;8926;49.720;6.576;2024-01-10T10:14:48;100672.97;;;11.35;30.33
17615;BME280;8926;49.720;6.576;2024-01-10T10:17:17;100664.16;;;11.17;29.80
17615;BME280;8926;49.720;6.576;2024-01-10T10:19:43;100666.50;;;10.84;30.82
17615;BME280;8926;49.720;6.576;2024-01-10T10:22:09;100673.91;;;10.11;32.26
17615;BME280;8926;49.720;6.576;2024-01-10T10:24:35;100669.72;;;9.15;34.87
17615;BME280;8926;49.720;6.576;2024-01-10T10:27:00;100671.72;;;8.04;34.03
17615;BME280;8926;49.720;6.576;2024-01-10T10:29:25;100690.72;;;7.51;36.37
17615;BME280;8926;49.720;6.576;2024-01-10T10:31:50;100676.72;;;7.25;37.24
17615;BME280;8926;49.720;6.576;2024-01-10T10:34:20;100685.50;;;6.89;37.47
17615;BME280;8926;49.720;6.576;2024-01-10T10:36:46;100687.78;;;6.68;36.77
17615;BME280;8926;49.720;6.576;2024-01-10T10:39:15;100684.91;;;6.77;40.78
17615;BME280;8926;49.720;6.576;2024-01-10T10:41:40;100691.56;;;6.55;36.92
17615;BME280;8926;49.720;6.576;2024-01-10T10:44:06;100679.47;;;6.54;36.59
17615;BME280;8926;49.720;6.576;2024-01-10T10:46:34;100679.16;;;6.66;39.67
17615;BME280;8926;49.720;6.576;2024-01-10T10:49:00;100679.44;;;6.56;38.08
17615;BME280;8926;49.720;6.576;2024-01-10T10:51:33;100674.06;;;6.63;38.72
17615;BME280;8926;49.720;6.576;2024-01-10T10:53:59;100675.41;;;6.76;39.10
17615;BME280;8926;49.720;6.576;2024-01-10T10:56:24;100663.47;;;6.71;37.47
17615;BME280;8926;49.720;6.576;2024-01-10T10:58:52;100675.84;;;6.94;41.86
17615;BME280;8926;49.720;6.576;2024-01-10T11:01:18;100669.72;;;6.96;41.03
17615;BME280;8926;49.720;6.576;2024-01-10T11:03:44;100666.66;;;7.13;39.44
17615;BME280;8926;49.720;6.576;2024-01-10T11:06:12;100658.94;;;7.10;35.85
17615;BME280;8926;49.720;6.576;2024-01-10T11:08:54;100662.88;;;7.25;41.23
17615;BME280;8926;49.720;6.576;2024-01-10T11:16:45;100666.66;;;6.80;37.05
17615;BME280;8926;49.720;6.576;2024-01-10T11:22:10;100676.91;;;6.53;37.18
17615;BME280;8926;49.720;6.576;2024-01-10T11:24:39;100677.47;;;6.65;40.09
17615;BME280;8926;49.720;6.576;2024-01-10T11:27:07;100674.06;;;6.63;40.21
17615;BME280;8926;49.720;6.576;2024-01-10T11:29:36;100667.84;;;6.69;38.44
17615;BME280;8926;49.720;6.576;2024-01-10T11:32:02;100675.19;;;6.86;38.02
17615;BME280;8926;49.720;6.576;2024-01-10T11:34:29;100676.47;;;7.02;36.29
17615;BME280;8926;49.720;6.576;2024-01-10T11:37:09;100667.78;;;7.03;38.39
17615;BME280;8926;49.720;6.576;2024-01-10T11:39:35;100671.63;;;6.90;37.05
17615;BME280;8926;49.720;6.576;2024-01-10T11:42:01;100673.16;;;6.97;36.46
17615;BME280;8926;49.720;6.576;2024-01-10T11:44:26;100672.34;;;6.95;36.53
17615;BME280;8926;49.720;6.576;2024-01-10T11:46:55;100670.50;;;7.00;37.81
17615;BME280;8926;49.720;6.576;2024-01-10T11:49:21;100667.03;;;6.99;38.01
17615;BME280;8926;49.720;6.576;2024-01-10T11:51:47;100668.97;;;6.91;37.27
17615;BME280;8926;49.720;6.576;2024-01-10T11:56:57;100668.56;;;6.75;36.27
17615;BME280;8926;49.720;6.576;2024-01-10T11:59:22;100670.56;;;6.64;37.60
17615;BME280;8926;49.720;6.576;2024-01-10T12:01:48;100665.66;;;6.52;37.39
17615;BME280;8926;49.720;6.576;2024-01-10T12:04:13;100656.91;;;6.56;37.71
17615;BME280;8926;49.720;6.576;2024-01-10T12:06:39;100658.69;;;6.54;37.70
17615;BME280;8926;49.720;6.576;2024-01-10T12:09:04;100649.44;;;6.45;37.92
17615;BME280;8926;49.720;6.576;2024-01-10T12:11:33;100648.88;;;6.33;38.48
17615;BME280;8926;49.720;6.576;2024-01-10T12:13:59;100655.22;;;6.21;37.10
17615;BME280;8926;49.720;6.576;2024-01-10T12:16:24;100655.19;;;6.23;38.06
17615;BME280;8926;49.720;6.576;2024-01-10T12:18:49;100647.53;;;6.17;37.54
17615;BME280;8926;49.720;6.576;2024-01-10T12:21:16;100655.25;;;5.81;37.23
17615;BME280;8926;49.720;6.576;2024-01-10T12:23:41;100647.44;;;5.83;38.91
17615;BME280;8926;49.720;6.576;2024-01-10T12:26:08;100644.88;;;5.81;39.24
17615;BME280;8926;49.720;6.576;2024-01-10T12:28:34;100641.47;;;5.79;38.32
17615;BME280;8926;49.720;6.576;2024-01-10T12:31:00;100643.03;;;5.86;39.02
17615;BME280;8926;49.720;6.576;2024-01-10T12:33:25;100646.78;;;5.73;39.03
17615;BME280;8926;49.720;6.576;2024-01-10T12:38:29;100645.31;;;5.63;40.21
17615;BME280;8926;49.720;6.576;2024-01-10T12:40:54;100630.75;;;5.57;40.29
17615;BME280;8926;49.720;6.576;2024-01-10T12:43:19;100632.69;;;5.46;39.71
17615;BME280;8926;49.720;6.576;2024-01-10T12:45:44;100626.59;;;5.49;40.60
17615;BME280;8926;49.720;6.576;2024-01-10T12:48:13;100619.88;;;5.41;39.69
17615;BME280;8926;49.720;6.576;2024-01-10T12:50:38;100611.44;;;5.32;40.81
17615;BME280;8926;49.720;6.576;2024-01-10T12:53:03;100613.34;;;5.22;39.81
17615;BME280;8926;49.720;6.576;2024-01-10T12:55:29;100605.03;;;5.08;40.89
17615;BME280;8926;49.720;6.576;2024-01-10T12:57:54;100613.16;;;4.90;41.61
17615;BME280;8926;49.720;6.576;2024-01-10T13:00:20;100610.88;;;4.74;40.13
17615;BME280;8926;49.720;6.576;2024-01-10T13:02:45;100605.56;;;4.81;40.91
17615;BME280;8926;49.720;6.576;2024-01-10T13:05:12;100613.91;;;4.95;41.94
17615;BME280;8926;49.720;6.576;2024-01-10T13:07:37;100606.09;;;4.98;41.74